createdAt,value
2018-04-26T00:02:45.542Z,4.95
2018-04-26T00:05:17.213Z,4.83
2018-04-26T00:07:49.818Z,4.10
2018-04-26T00:10:21.925Z,3.58
2018-04-26T00:15:13.215Z,3.87
2018-04-26T00:19:32.491Z,5.50
2018-04-26T00:22:04.214Z,5.83
2018-04-26T00:28:19.223Z,3.70
2018-04-26T00:33:22.299Z,3.47
2018-04-26T00:40:49.509Z,4.50
2018-04-26T00:43:21.229Z,3.70
2018-04-26T00:45:52.825Z,3.80
2018-04-26T00:48:24.849Z,5.43
2018-04-26T00:50:56.836Z,4.25
2018-04-26T00:53:31.131Z,3.15
2018-04-26T00:56:03.150Z,4.37
2018-04-26T00:58:39.391Z,3.60
2018-04-26T01:01:11.309Z,4.93
2018-04-26T01:06:13.498Z,4.07
2018-04-26T01:08:45.262Z,3.07
2018-04-26T01:13:51.175Z,4.07
2018-04-26T01:16:23.687Z,3.60
2018-04-26T01:18:56.364Z,4.50
2018-04-26T01:22:28.373Z,3.33
2018-04-26T01:25:00.252Z,2.80
2018-04-26T01:30:03.161Z,2.70
2018-04-26T01:32:34.841Z,3.78
2018-04-26T01:35:06.876Z,2.75
2018-04-26T01:37:49.983Z,3.85
2018-04-26T01:40:22.963Z,3.20
2018-04-26T01:42:55.884Z,3.37
2018-04-26T01:45:27.863Z,2.78
2018-04-26T01:48:01.253Z,2.80
2018-04-26T01:50:32.906Z,3.07
2018-04-26T01:53:04.965Z,5.55
2018-04-26T01:55:37.158Z,2.92
2018-04-26T01:58:08.888Z,3.03
2018-04-26T02:00:41.983Z,3.15
2018-04-26T02:03:13.998Z,2.78
2018-04-26T02:05:45.878Z,5.22
2018-04-26T02:08:19.461Z,3.55
2018-04-26T02:10:51.263Z,6.60
2018-04-26T02:18:26.916Z,4.68
2018-04-26T02:21:00.937Z,4.68
2018-04-26T02:25:52.550Z,4.50
2018-04-26T02:28:24.253Z,4.30
2018-04-26T02:30:55.886Z,4.47
2018-04-26T02:33:27.858Z,4.85
2018-04-26T02:36:01.278Z,4.00
2018-04-26T02:38:33.389Z,5.50
2018-04-26T02:46:11.177Z,5.23
2018-04-26T02:49:36.358Z,5.40
2018-04-26T02:52:09.461Z,5.43
2018-04-26T02:54:42.174Z,5.87
2018-04-26T03:01:57.838Z,7.17
2018-04-26T03:04:30.849Z,4.32
2018-04-26T03:07:04.073Z,5.95
2018-04-26T03:09:37.474Z,5.72
2018-04-26T03:12:11.761Z,4.67
2018-04-26T03:17:14.565Z,5.50
2018-04-26T03:19:47.212Z,5.10
2018-04-26T03:22:20.001Z,7.10
2018-04-26T03:24:53.424Z,5.87
2018-04-26T03:28:05.280Z,8.23
2018-04-26T03:30:38.657Z,7.65
2018-04-26T03:33:12.478Z,10.30
2018-04-26T03:35:45.475Z,9.07
2018-04-26T03:38:18.206Z,8.37
2018-04-26T03:40:51.176Z,8.73
2018-04-26T03:43:24.281Z,7.28
2018-04-26T03:50:59.896Z,9.47
2018-04-26T03:53:32.634Z,5.80
2018-04-26T03:57:51.382Z,7.30
2018-04-26T04:00:34.554Z,7.20
2018-04-26T04:03:18.372Z,7.07
2018-04-26T04:10:33.777Z,11.73
2018-04-26T04:13:08.614Z,12.00
2018-04-26T04:15:42.302Z,10.18
2018-04-26T04:18:15.196Z,13.97
2018-04-26T04:23:19.100Z,8.10
2018-04-26T04:25:52.561Z,10.82
2018-04-26T04:28:26.033Z,14.07
2018-04-26T04:30:59.144Z,11.93
2018-04-26T04:36:03.301Z,11.80
2018-04-26T04:38:36.422Z,12.43
2018-04-26T04:41:10.116Z,12.30
2018-04-26T04:43:45.204Z,10.83
2018-04-26T04:46:17.883Z,11.10
2018-04-26T04:48:51.464Z,11.48
2018-04-26T04:51:24.733Z,12.87
2018-04-26T04:53:57.603Z,10.85
2018-04-26T04:56:31.124Z,11.18
2018-04-26T05:01:35.364Z,10.30
2018-04-26T05:04:08.400Z,11.73
2018-04-26T05:06:41.353Z,11.17
2018-04-26T05:09:15.053Z,13.37
2018-04-26T05:11:48.167Z,11.50
2018-04-26T05:16:53.329Z,9.43
2018-04-26T05:19:26.717Z,10.30
2018-04-26T05:22:00.129Z,14.30
2018-04-26T05:24:32.744Z,12.65
2018-04-26T05:27:06.127Z,11.07
2018-04-26T05:34:43.872Z,11.65
2018-04-26T05:37:16.920Z,11.52
2018-04-26T05:39:49.805Z,10.18
2018-04-26T05:42:23.446Z,12.15
2018-04-26T05:44:56.259Z,10.50
2018-04-26T05:47:29.167Z,9.93
2018-04-26T05:52:34.067Z,13.07
2018-04-26T05:55:07.666Z,9.52
2018-04-26T05:57:41.131Z,10.38
2018-04-26T06:05:32.382Z,12.20
2018-04-26T06:08:05.365Z,13.80
2018-04-26T06:10:38.758Z,10.90
2018-04-26T06:13:12.054Z,12.55
2018-04-26T06:15:45.360Z,9.90
2018-04-26T06:18:18.563Z,10.03
2018-04-26T06:20:52.161Z,12.40
2018-04-26T06:23:25.557Z,10.50
2018-04-26T06:25:59.169Z,11.57
2018-04-26T06:31:04.693Z,10.87
2018-04-26T06:33:37.758Z,8.82
2018-04-26T06:36:11.355Z,10.18
2018-04-26T06:38:44.986Z,10.97
2018-04-26T06:41:17.937Z,9.88
2018-04-26T06:43:50.789Z,9.52
2018-04-26T06:46:24.490Z,12.07
2018-04-26T06:48:58.497Z,13.30
2018-04-26T06:51:31.348Z,9.00
2018-04-26T06:54:04.696Z,12.10
2018-04-26T06:57:13.075Z,12.10
2018-04-26T06:59:46.174Z,11.23
2018-04-26T07:02:19.098Z,10.23
2018-04-26T07:04:51.749Z,9.88
2018-04-26T07:07:25.305Z,10.10
2018-04-26T07:09:58.617Z,12.60
2018-04-26T07:12:31.804Z,10.88
2018-04-26T07:15:05.090Z,11.00
2018-04-26T07:17:37.789Z,9.65
2018-04-26T07:20:11.268Z,10.52
2018-04-26T07:22:44.362Z,10.63
2018-04-26T07:25:17.533Z,10.30
2018-04-26T07:27:51.402Z,11.17
2018-04-26T07:30:25.410Z,10.13
2018-04-26T07:32:58.557Z,13.97
2018-04-26T07:35:31.378Z,10.13
2018-04-26T07:38:04.096Z,9.67
2018-04-26T07:40:37.366Z,10.15
2018-04-26T07:43:10.189Z,10.47
2018-04-26T07:45:42.792Z,11.95
2018-04-26T07:48:15.688Z,9.82
2018-04-26T07:50:49.148Z,11.45
2018-04-26T07:53:22.498Z,10.77
2018-04-26T07:55:55.186Z,9.43
2018-04-26T08:01:00.294Z,9.68
2018-04-26T08:03:33.193Z,10.17
2018-04-26T08:06:06.264Z,11.10
2018-04-26T08:09:58.933Z,13.10
2018-04-26T08:12:32.321Z,9.60
2018-04-26T08:15:05.264Z,9.17
2018-04-26T08:17:38.211Z,10.77
2018-04-26T08:20:10.390Z,12.13
2018-04-26T08:22:43.001Z,11.33
2018-04-26T08:25:15.516Z,10.27
2018-04-26T08:27:48.742Z,11.40
2018-04-26T08:30:21.745Z,11.37
2018-04-26T08:32:54.960Z,9.30
2018-04-26T08:35:28.386Z,10.93
2018-04-26T08:38:02.545Z,10.88
2018-04-26T08:40:35.225Z,10.67
2018-04-26T08:43:08.520Z,11.27
2018-04-26T08:45:41.166Z,9.87
2018-04-26T08:48:14.513Z,10.32
2018-04-26T08:50:48.403Z,12.57
2018-04-26T08:53:21.226Z,11.10
2018-04-26T08:55:54.533Z,9.60
2018-04-26T08:58:27.501Z,11.63
2018-04-26T09:01:01.065Z,10.68
2018-04-26T09:03:34.371Z,9.57
2018-04-26T09:06:07.289Z,10.70
2018-04-26T09:08:40.648Z,11.80
2018-04-26T09:11:14.670Z,11.40
2018-04-26T09:13:48.055Z,9.93
2018-04-26T09:16:20.900Z,10.33
2018-04-26T09:18:54.647Z,8.60
2018-04-26T09:21:28.598Z,10.27
2018-04-26T09:26:33.016Z,12.67
2018-04-26T09:29:06.054Z,11.50
2018-04-26T09:31:38.897Z,9.00
2018-04-26T09:34:12.779Z,13.35
2018-04-26T09:36:48.870Z,14.15
2018-04-26T09:39:22.365Z,7.43
2018-04-26T09:41:55.501Z,9.90
2018-04-26T09:44:29.649Z,10.88
2018-04-26T09:47:02.446Z,8.57
2018-04-26T09:49:35.580Z,9.20
2018-04-26T09:52:09.364Z,9.43
2018-04-26T09:54:42.405Z,8.67
2018-04-26T09:57:15.337Z,11.17
2018-04-26T09:59:48.030Z,7.57
2018-04-26T10:02:20.641Z,6.73
2018-04-26T10:05:00.386Z,14.30
2018-04-26T10:07:33.226Z,8.20
2018-04-26T10:10:06.551Z,10.63
2018-04-26T10:12:39.179Z,9.53
2018-04-26T10:15:11.952Z,7.80
2018-04-26T10:17:45.075Z,7.43
2018-04-26T10:20:18.660Z,9.57
2018-04-26T10:22:51.561Z,8.90
2018-04-26T10:25:24.603Z,11.30
2018-04-26T10:27:57.433Z,11.25
2018-04-26T10:30:30.451Z,9.50
2018-04-26T10:33:03.373Z,7.72
2018-04-26T10:35:36.422Z,10.03
2018-04-26T10:38:08.884Z,8.43
2018-04-26T10:40:42.149Z,9.23
2018-04-26T10:43:14.448Z,9.87
2018-04-26T10:45:47.381Z,10.17
2018-04-26T10:48:20.509Z,7.80
2018-04-26T10:50:53.489Z,11.40
2018-04-26T10:53:27.378Z,10.75
2018-04-26T10:55:59.934Z,9.17
2018-04-26T10:58:32.941Z,11.47
2018-04-26T11:01:06.424Z,15.97
2018-04-26T11:03:40.300Z,8.82
2018-04-26T11:06:13.299Z,10.35
2018-04-26T11:08:46.627Z,8.40
2018-04-26T11:11:20.079Z,10.15
2018-04-26T11:13:53.021Z,11.77
2018-04-26T11:16:25.520Z,12.93
2018-04-26T11:18:58.558Z,9.43
2018-04-26T11:21:32.756Z,11.38
2018-04-26T11:24:06.414Z,10.03
2018-04-26T11:26:40.053Z,12.32
2018-04-26T11:29:12.997Z,9.65
2018-04-26T11:31:45.921Z,9.35
2018-04-26T11:34:19.202Z,10.87
2018-04-26T11:36:51.528Z,11.30
2018-04-26T11:39:24.414Z,12.50
2018-04-26T11:41:57.518Z,13.95
2018-04-26T11:44:30.070Z,12.20
2018-04-26T11:47:02.931Z,8.60
2018-04-26T11:49:36.475Z,11.00
2018-04-26T11:52:09.868Z,9.60
2018-04-26T11:54:43.674Z,8.77
2018-04-26T11:57:17.061Z,12.73
2018-04-26T11:59:50.510Z,7.53
2018-04-26T12:02:24.038Z,12.85
2018-04-26T12:07:29.834Z,11.30
2018-04-26T12:10:03.415Z,9.80
2018-04-26T12:12:36.975Z,10.10
2018-04-26T12:15:10.065Z,10.57
2018-04-26T12:17:43.001Z,9.40
2018-04-26T12:20:16.385Z,10.50
2018-04-26T12:22:49.290Z,10.02
2018-04-26T12:25:22.477Z,9.60
2018-04-26T12:27:56.025Z,12.98
2018-04-26T12:30:29.016Z,7.43
2018-04-26T12:33:02.442Z,9.95
2018-04-26T12:35:35.368Z,10.27
2018-04-26T12:38:08.218Z,9.83
2018-04-26T12:40:41.573Z,9.20
2018-04-26T12:43:15.416Z,8.95
2018-04-26T12:45:48.627Z,7.33
2018-04-26T12:48:22.432Z,11.57
2018-04-26T12:50:55.716Z,13.00
2018-04-26T12:53:29.286Z,11.32
2018-04-26T12:56:02.775Z,11.30
2018-04-26T12:58:35.402Z,7.55
2018-04-26T13:01:08.552Z,10.93
2018-04-26T13:03:41.962Z,12.18
2018-04-26T13:06:15.398Z,11.05
2018-04-26T13:08:48.593Z,10.40
2018-04-26T13:11:21.217Z,8.40
2018-04-26T13:13:53.516Z,8.63
2018-04-26T13:16:26.890Z,8.90
2018-04-26T13:19:00.537Z,10.90
2018-04-26T13:21:33.509Z,10.73
2018-04-26T13:24:06.070Z,8.10
2018-04-26T13:26:38.398Z,10.83
2018-04-26T13:29:11.436Z,12.88
2018-04-26T13:31:44.575Z,9.43
2018-04-26T13:34:17.401Z,11.70
2018-04-26T13:36:50.585Z,11.43
2018-04-26T13:39:23.386Z,11.20
2018-04-26T13:41:56.212Z,10.00
2018-04-26T13:44:28.385Z,12.83
2018-04-26T13:47:01.710Z,12.50
2018-04-26T13:49:34.633Z,9.00
2018-04-26T13:52:07.137Z,10.23
2018-04-26T13:54:40.525Z,10.53
2018-04-26T13:57:14.194Z,9.30
2018-04-26T13:59:47.634Z,10.13
2018-04-26T14:02:20.874Z,9.93
2018-04-26T14:04:53.643Z,10.65
2018-04-26T14:07:26.373Z,9.80
2018-04-26T14:09:59.585Z,9.43
2018-04-26T14:12:32.513Z,8.93
2018-04-26T14:15:05.813Z,10.15
2018-04-26T14:17:39.070Z,9.90
2018-04-26T14:20:12.060Z,11.77
2018-04-26T14:22:44.913Z,10.25
2018-04-26T14:25:18.011Z,16.23
2018-04-26T14:27:51.381Z,10.23
2018-04-26T14:30:25.995Z,11.73
2018-04-26T14:33:00.440Z,10.20
2018-04-26T14:35:34.469Z,10.77
2018-04-26T14:38:08.037Z,11.63
2018-04-26T14:40:41.007Z,10.38
2018-04-26T14:45:02.507Z,9.70
2018-04-26T14:47:35.537Z,12.30
2018-04-26T14:50:08.018Z,9.70
2018-04-26T14:52:41.852Z,10.60
2018-04-26T14:55:15.309Z,11.43
2018-04-26T14:57:48.403Z,10.85
2018-04-26T15:00:21.506Z,9.90
2018-04-26T15:02:54.675Z,12.70
2018-04-26T15:05:27.709Z,10.87
2018-04-26T15:08:01.527Z,11.23
2018-04-26T15:10:35.510Z,10.27
2018-04-26T15:13:08.640Z,11.03
2018-04-26T15:15:41.935Z,13.43
2018-04-26T15:18:15.380Z,11.30
2018-04-26T15:20:49.305Z,10.27
2018-04-26T15:23:21.530Z,9.47
2018-04-26T15:25:54.421Z,11.75
2018-04-26T15:28:27.596Z,7.18
2018-04-26T15:31:00.812Z,12.13
2018-04-26T15:33:33.598Z,11.47
2018-04-26T15:36:07.463Z,10.30
2018-04-26T15:38:40.541Z,11.38
2018-04-26T15:41:13.514Z,8.53
2018-04-26T15:43:46.393Z,9.87
2018-04-26T15:46:18.873Z,16.07
2018-04-26T15:48:51.998Z,8.20
2018-04-26T15:51:25.825Z,8.85
2018-04-26T15:54:09.420Z,10.27
2018-04-26T15:56:59.008Z,13.13
2018-04-26T15:59:42.652Z,11.57
2018-04-26T16:02:31.785Z,10.18
2018-04-26T16:05:19.923Z,12.20
2018-04-26T16:08:08.252Z,9.30
2018-04-26T16:10:56.039Z,9.50
2018-04-26T16:13:43.525Z,10.00
2018-04-26T16:16:32.438Z,10.52
2018-04-26T16:19:20.411Z,12.50
2018-04-26T16:22:08.237Z,13.53
2018-04-26T16:24:56.426Z,8.37
2018-04-26T16:27:44.224Z,11.77
2018-04-26T16:30:26.751Z,10.03
2018-04-26T16:33:09.482Z,11.07
2018-04-26T16:35:52.809Z,8.85
2018-04-26T16:38:36.904Z,11.40
2018-04-26T16:41:08.838Z,7.97
2018-04-26T16:43:40.929Z,9.25
2018-04-26T16:46:13.536Z,12.33
2018-04-26T16:48:46.120Z,11.12
2018-04-26T16:51:20.237Z,10.40
2018-04-26T16:53:53.251Z,8.07
2018-04-26T16:56:25.813Z,9.77
2018-04-26T16:58:57.438Z,10.60
2018-04-26T17:01:29.094Z,10.83
2018-04-26T17:04:01.039Z,10.73
2018-04-26T17:06:33.023Z,11.10
2018-04-26T17:09:06.473Z,11.40
2018-04-26T17:11:40.056Z,13.52
2018-04-26T17:14:13.066Z,8.65
2018-04-26T17:16:46.930Z,12.90
2018-04-26T17:19:20.994Z,12.13
2018-04-26T17:21:56.510Z,11.10
2018-04-26T17:24:32.493Z,9.27
2018-04-26T17:27:06.399Z,11.18
2018-04-26T17:29:40.402Z,11.88
2018-04-26T17:32:13.756Z,9.67
2018-04-26T17:34:47.445Z,10.70
2018-04-26T17:37:20.380Z,6.90
2018-04-26T17:39:53.767Z,12.57
2018-04-26T17:42:27.722Z,7.78
2018-04-26T17:45:01.578Z,9.30
2018-04-26T17:47:34.454Z,8.37
2018-04-26T17:50:08.218Z,8.20
2018-04-26T17:52:42.134Z,10.23
2018-04-26T17:55:15.741Z,11.40
2018-04-26T17:57:49.276Z,11.40
2018-04-26T18:00:23.187Z,12.33
2018-04-26T18:02:58.218Z,7.53
2018-04-26T18:05:31.585Z,11.20
2018-04-26T18:08:05.576Z,11.10
2018-04-26T18:10:38.800Z,8.90
2018-04-26T18:13:12.409Z,9.50
2018-04-26T18:15:46.051Z,12.15
2018-04-26T18:18:20.164Z,9.27
2018-04-26T18:20:53.099Z,10.20
2018-04-26T18:23:26.457Z,10.77
2018-04-26T18:26:00.925Z,12.10
2018-04-26T18:28:33.945Z,9.17
2018-04-26T18:31:06.988Z,14.60
2018-04-26T18:33:39.916Z,9.38
2018-04-26T18:36:13.620Z,11.30
2018-04-26T18:38:47.934Z,8.55
2018-04-26T18:41:21.387Z,11.20
2018-04-26T18:43:55.408Z,11.77
2018-04-26T18:46:28.822Z,13.40
2018-04-26T18:51:34.382Z,12.85
2018-04-26T18:54:08.030Z,15.43
2018-04-26T18:56:41.440Z,11.88
2018-04-26T18:59:15.035Z,15.60
2018-04-26T19:01:50.373Z,12.60
2018-04-26T19:04:23.509Z,13.10
2018-04-26T19:06:56.904Z,18.10
2018-04-26T19:09:30.433Z,11.90
2018-04-26T19:12:03.631Z,10.33
2018-04-26T19:14:37.301Z,11.73
2018-04-26T19:17:10.411Z,12.43
2018-04-26T19:19:44.024Z,11.53
2018-04-26T19:22:17.928Z,17.90
2018-04-26T19:24:51.386Z,11.53
2018-04-26T19:27:24.425Z,12.40
2018-04-26T19:29:58.832Z,10.00
2018-04-26T19:32:32.234Z,9.95
2018-04-26T19:35:05.200Z,11.15
2018-04-26T19:37:37.587Z,11.70
2018-04-26T19:40:10.435Z,10.10
2018-04-26T19:42:44.773Z,12.85
2018-04-26T19:45:18.466Z,13.10
2018-04-26T19:47:51.505Z,10.10
2018-04-26T19:50:24.923Z,10.93
2018-04-26T19:52:58.416Z,9.40
2018-04-26T19:55:32.434Z,12.55
2018-04-26T19:58:05.387Z,12.60
2018-04-26T20:00:39.387Z,11.40
2018-04-26T20:03:13.036Z,10.80
2018-04-26T20:05:46.811Z,13.40
2018-04-26T20:08:20.212Z,7.97
2018-04-26T20:10:53.306Z,10.37
2018-04-26T20:13:27.242Z,11.40
2018-04-26T20:17:31.520Z,9.48
2018-04-26T20:20:04.397Z,11.02
2018-04-26T20:22:37.519Z,10.53
2018-04-26T20:25:10.295Z,10.43
2018-04-26T20:27:43.660Z,7.77
2018-04-26T20:30:16.826Z,11.48
2018-04-26T20:35:20.502Z,9.00
2018-04-26T20:37:53.388Z,9.30
2018-04-26T20:40:26.488Z,10.57
2018-04-26T20:42:59.578Z,9.85
2018-04-26T20:45:32.912Z,8.23
2018-04-26T20:48:06.749Z,7.63
2018-04-26T20:50:40.370Z,8.80
2018-04-26T20:53:13.574Z,8.83
2018-04-26T20:55:46.438Z,9.13
2018-04-26T20:58:19.547Z,10.13
2018-04-26T21:00:52.731Z,9.20
2018-04-26T21:03:25.697Z,9.30
2018-04-26T21:05:58.376Z,8.55
2018-04-26T21:08:31.110Z,9.33
2018-04-26T21:11:04.503Z,11.20
2018-04-26T21:13:37.694Z,8.33
2018-04-26T21:16:10.496Z,12.45
2018-04-26T21:18:43.018Z,9.30
2018-04-26T21:21:15.933Z,8.53
2018-04-26T21:23:49.295Z,6.47
2018-04-26T21:26:22.380Z,10.50
2018-04-26T21:28:55.606Z,8.33
2018-04-26T21:31:28.391Z,6.13
2018-04-26T21:34:00.921Z,8.00
2018-04-26T21:36:33.542Z,6.87
2018-04-26T21:39:06.974Z,9.90
2018-04-26T21:41:40.208Z,6.97
2018-04-26T21:44:13.507Z,7.95
2018-04-26T21:46:46.666Z,9.35
2018-04-26T21:51:55.799Z,6.57
2018-04-26T21:54:33.081Z,8.10
2018-04-26T21:57:10.760Z,7.40
2018-04-26T21:59:49.853Z,8.50
2018-04-26T22:02:23.830Z,8.90
2018-04-26T22:04:58.200Z,6.70
2018-04-26T22:07:31.308Z,6.68
2018-04-26T22:10:04.398Z,8.18
2018-04-26T22:12:37.314Z,6.80
2018-04-26T22:15:10.387Z,7.67
2018-04-26T22:17:43.085Z,9.87
2018-04-26T22:20:16.097Z,9.23
2018-04-26T22:22:48.420Z,7.37
2018-04-26T22:25:21.610Z,8.80
2018-04-26T22:27:54.453Z,8.93
2018-04-26T22:30:27.071Z,7.67
2018-04-26T22:33:00.628Z,7.70
2018-04-26T22:35:33.762Z,10.63
2018-04-26T22:38:06.433Z,5.60
2018-04-26T22:40:39.928Z,9.35
2018-04-26T22:43:13.396Z,5.93
2018-04-26T22:45:46.414Z,7.53
2018-04-26T22:48:19.325Z,5.70
2018-04-26T22:50:52.418Z,7.27
2018-04-26T22:53:25.061Z,10.43
2018-04-26T22:55:58.407Z,8.47
2018-04-26T22:58:31.674Z,5.07
2018-04-26T23:01:03.779Z,8.70
2018-04-26T23:03:37.050Z,5.95
2018-04-26T23:06:10.833Z,6.33
2018-04-26T23:08:44.421Z,5.75
2018-04-26T23:11:16.814Z,10.13
2018-04-26T23:13:49.565Z,8.97
2018-04-26T23:16:21.417Z,7.70
2018-04-26T23:18:52.970Z,6.43
2018-04-26T23:23:03.968Z,6.53
2018-04-26T23:25:35.979Z,7.10
2018-04-26T23:28:07.549Z,8.77
2018-04-26T23:30:39.886Z,6.50
2018-04-26T23:33:11.778Z,7.50
2018-04-26T23:35:43.591Z,7.15
2018-04-26T23:38:15.118Z,9.87
2018-04-26T23:40:46.864Z,6.80
2018-04-26T23:45:49.361Z,8.83
2018-04-26T23:48:21.705Z,7.30
2018-04-26T23:50:53.430Z,8.03
2018-04-26T23:53:25.055Z,6.77
2018-04-26T23:55:57.093Z,10.83
2018-04-26T23:58:28.836Z,8.37
